Time;durP1;ratioP1;P1;durP2;ratioP2;P2;SDS_P1;SDS_P2;PMS_P1;PMS_P2;Temp;Humidity;BMP_temperature;BMP_pressure;BME280_temperature;BME280_humidity;BME280_pressure;Samples;Min_cycle;Max_cycle;Signal;HPM_P1;HPM_P2
2022/06/13 00:01:28;;;;;;;14.80;6.03;;;11.30;99.90;;;;;;5080568;28;20060;-87
2022/06/13 00:03:54;;;;;;;19.52;7.10;;;11.30;99.90;;;;;;5091251;28;20040;-87
2022/06/13 00:06:20;;;;;;;15.30;5.60;;;11.30;99.90;;;;;;5080194;28;20057;-86
2022/06/13 00:08:46;;;;;;;29.60;7.78;;;11.20;99.90;;;;;;5080774;28;20052;-87
2022/06/13 00:11:16;;;;;;;16.85;6.82;;;11.10;99.90;;;;;;5080533;28;20028;-87
2022/06/13 00:13:43;;;;;;;19.98;6.32;;;11.00;99.90;;;;;;5081734;28;20040;-87
2022/06/13 00:16:11;;;;;;;17.35;6.18;;;10.90;99.90;;;;;;5100626;28;20044;-87
2022/06/13 00:18:36;;;;;;;15.48;6.35;;;11.30;99.90;;;;;;5100752;28;20044;-87
2022/06/13 00:21:03;;;;;;;18.25;6.10;;;10.80;99.90;;;;;;5096052;28;20349;-87
2022/06/13 00:23:29;;;;;;;18.48;6.18;;;10.80;99.90;;;;;;5100812;28;20075;-87
2022/06/13 00:25:54;;;;;;;13.68;5.90;;;10.70;99.90;;;;;;5098650;28;20500;-88
2022/06/13 00:28:20;;;;;;;19.45;7.05;;;11.40;99.90;;;;;;5080358;28;20036;-87
2022/06/13 00:30:46;;;;;;;19.08;6.68;;;11.20;99.90;;;;;;5080740;28;20060;-87
2022/06/13 00:33:11;;;;;;;17.88;6.88;;;10.60;99.90;;;;;;5080687;28;20036;-87
2022/06/13 00:35:37;;;;;;;21.70;7.47;;;10.60;99.90;;;;;;5079822;28;20101;-86
2022/06/13 00:38:03;;;;;;;23.88;6.75;;;10.50;99.90;;;;;;5080046;28;20496;-88
2022/06/13 00:40:31;;;;;;;16.13;6.60;;;10.50;99.90;;;;;;5079945;28;20404;-87
2022/06/13 00:42:57;;;;;;;18.20;5.65;;;10.50;99.90;;;;;;5079700;28;20131;-87
2022/06/13 00:45:32;;;;;;;16.10;7.13;;;10.50;99.90;;;;;;5079884;28;20460;-88
2022/06/13 00:47:58;;;;;;;20.13;6.32;;;10.60;99.90;;;;;;5079978;28;20044;-86
2022/06/13 00:50:31;;;;;;;17.60;6.85;;;10.60;99.90;;;;;;5086035;28;20089;-87
2022/06/13 00:53:02;;;;;;;19.55;6.07;;;10.60;99.90;;;;;;5082200;28;20047;-87
2022/06/13 00:55:40;;;;;;;19.63;6.65;;;10.60;99.90;;;;;;5099742;28;20130;-87
2022/06/13 00:58:07;;;;;;;15.30;6.47;;;10.60;99.90;;;;;;5082226;28;20055;-87
2022/06/13 01:00:35;;;;;;;26.95;7.72;;;10.60;99.90;;;;;;5081694;28;20047;-87
2022/06/13 01:03:02;;;;;;;16.58;7.75;;;10.70;99.90;;;;;;5100310;28;20048;-86
2022/06/13 01:05:33;;;;;;;15.60;6.85;;;10.70;99.90;;;;;;5092055;28;20425;-85
2022/06/13 01:08:02;;;;;;;14.23;6.53;;;10.70;99.90;;;;;;5080035;28;20044;-87
2022/06/13 01:13:13;;;;;;;20.75;5.97;;;10.80;99.90;;;;;;5079965;28;20057;-86
2022/06/13 01:16:04;;;;;;;18.25;6.85;;;10.90;99.90;;;;;;5079813;28;20443;-87
2022/06/13 01:19:19;;;;;;;20.80;6.88;;;10.90;99.90;;;;;;5061895;28;20088;-86
2022/06/13 01:22:00;;;;;;;26.75;7.43;;;10.90;99.90;;;;;;5078627;28;20041;-87
2022/06/13 01:24:53;;;;;;;22.83;7.00;;;10.90;99.90;;;;;;5079951;28;20080;-87
2022/06/13 01:27:37;;;;;;;23.10;8.00;;;10.90;99.90;;;;;;5079438;28;20045;-87
2022/06/13 01:30:33;;;;;;;21.48;7.85;;;10.90;99.90;;;;;;5069679;28;20044;-88
2022/06/13 01:33:05;;;;;;;20.88;7.30;;;10.80;99.90;;;;;;5099716;28;20051;-88
2022/06/13 01:35:48;;;;;;;24.55;7.55;;;10.80;99.90;;;;;;5079528;28;20393;-88
2022/06/13 01:38:35;;;;;;;27.52;7.03;;;10.80;99.90;;;;;;5099644;28;20044;-86
2022/06/13 01:41:25;;;;;;;23.30;7.38;;;10.70;99.90;;;;;;5098651;28;20040;-87
2022/06/13 01:44:22;;;;;;;20.17;6.60;;;10.60;99.90;;;;;;5099132;28;20048;-87
2022/06/13 01:47:07;;;;;;;22.02;8.02;;;10.60;99.90;;;;;;5081196;28;20531;-88
2022/06/13 01:49:50;;;;;;;21.80;7.38;;;10.60;99.90;;;;;;5089269;28;20572;-87
2022/06/13 01:52:21;;;;;;;25.17;8.57;;;10.60;99.90;;;;;;5079149;28;20045;-87
2022/06/13 01:58:04;;;;;;;18.80;8.00;;;10.60;99.90;;;;;;5004418;28;20054;-76
2022/06/13 02:00:32;;;;;;;22.00;8.25;;;10.60;99.90;;;;;;5001982;28;20105;-73
2022/06/13 02:03:19;;;;;;;25.48;7.82;;;10.60;99.90;;;;;;5012080;28;20096;-74
2022/06/13 02:06:03;;;;;;;16.90;8.20;;;10.60;99.90;;;;;;5012929;28;20447;-74
2022/06/13 02:08:37;;;;;;;17.15;7.45;;;10.70;99.90;;;;;;5011814;28;20077;-75
2022/06/13 02:11:11;;;;;;;25.35;9.32;;;10.70;99.90;;;;;;5013122;28;20042;-74
2022/06/13 02:13:50;;;;;;;31.30;9.85;;;10.80;99.90;;;;;;5010722;28;20061;-74
2022/06/13 02:16:30;;;;;;;30.73;9.45;;;10.80;99.90;;;;;;5003279;28;20038;-74
2022/06/13 02:19:11;;;;;;;24.05;8.40;;;10.90;99.90;;;;;;4997874;28;20038;-74
2022/06/13 02:21:50;;;;;;;25.40;8.52;;;11.00;99.90;;;;;;5012184;28;20038;-76
2022/06/13 02:24:22;;;;;;;21.13;7.80;;;11.00;99.90;;;;;;5013330;28;20052;-74
2022/06/13 02:26:52;;;;;;;19.58;7.97;;;11.00;99.90;;;;;;4995158;28;20061;-75
2022/06/13 02:29:22;;;;;;;31.50;8.68;;;11.10;99.90;;;;;;5000447;28;20038;-74
2022/06/13 02:32:18;;;;;;;23.52;8.60;;;11.10;99.90;;;;;;5010489;28;20053;-74
2022/06/13 02:35:00;;;;;;;30.80;9.13;;;11.20;99.90;;;;;;5011900;28;20494;-75
2022/06/13 02:37:38;;;;;;;23.02;9.00;;;11.20;99.90;;;;;;4993134;28;20062;-74
2022/06/13 02:40:12;;;;;;;26.48;10.25;;;11.20;99.90;;;;;;5009381;28;20096;-75
2022/06/13 02:42:43;;;;;;;21.20;7.93;;;11.30;99.90;;;;;;5012898;28;20398;-75
2022/06/13 02:45:17;;;;;;;25.60;9.05;;;11.30;99.90;;;;;;5012599;28;20053;-75
2022/06/13 02:48:01;;;;;;;22.65;8.73;;;11.40;99.90;;;;;;5012778;28;20052;-76
2022/06/13 02:50:51;;;;;;;24.85;8.95;;;11.50;99.90;;;;;;4993737;28;20054;-75
2022/06/13 02:53:39;;;;;;;23.25;9.15;;;11.60;99.90;;;;;;4985721;28;20058;-75
2022/06/13 02:56:11;;;;;;;23.80;9.68;;;11.60;99.90;;;;;;4998118;28;20077;-76
2022/06/13 02:58:48;;;;;;;21.85;8.70;;;11.60;99.90;;;;;;4992879;28;20101;-76
2022/06/13 03:01:21;;;;;;;32.53;10.05;;;11.70;99.90;;;;;;4992866;28;20046;-76
2022/06/13 03:04:10;;;;;;;33.08;9.55;;;11.70;99.90;;;;;;4993126;28;20057;-76
2022/06/13 03:07:11;;;;;;;25.05;8.48;;;11.80;99.90;;;;;;4992271;28;20042;-76
2022/06/13 03:09:44;;;;;;;20.23;8.90;;;11.80;99.90;;;;;;4992667;28;20046;-76
2022/06/13 03:12:19;;;;;;;25.20;9.05;;;11.80;99.90;;;;;;4993374;28;20074;-75
2022/06/13 03:15:03;;;;;;;30.30;10.18;;;11.80;99.90;;;;;;4993059;28;20042;-76
2022/06/13 03:17:50;;;;;;;20.63;8.88;;;11.80;99.90;;;;;;4992930;28;20038;-76
2022/06/13 03:20:19;;;;;;;26.25;9.27;;;11.90;99.90;;;;;;4973319;28;20171;-76
2022/06/13 03:23:01;;;;;;;27.88;9.38;;;11.90;99.90;;;;;;4973561;28;20055;-76
2022/06/13 03:25:43;;;;;;;31.50;10.05;;;11.90;99.90;;;;;;4982569;28;20050;-76
2022/06/13 03:28:34;;;;;;;27.48;9.77;;;11.90;99.90;;;;;;4992356;28;20542;-76
2022/06/13 03:31:07;;;;;;;30.05;9.75;;;11.90;99.90;;;;;;4991414;28;20054;-76
2022/06/13 03:33:40;;;;;;;23.63;9.35;;;12.00;99.90;;;;;;4995076;28;20431;-76
2022/06/13 03:36:37;;;;;;;28.15;9.70;;;12.00;99.90;;;;;;4996078;28;20053;-76
2022/06/13 03:39:14;;;;;;;28.30;8.82;;;12.00;99.90;;;;;;4988316;28;20113;-76
2022/06/13 03:41:52;;;;;;;25.88;9.00;;;12.00;99.90;;;;;;4996327;28;20519;-76
2022/06/13 03:44:24;;;;;;;22.48;8.80;;;12.10;99.90;;;;;;4996294;28;20100;-75
2022/06/13 03:47:06;;;;;;;23.00;7.63;;;12.10;99.90;;;;;;4995923;28;20101;-76
2022/06/13 03:50:36;;;;;;;27.67;8.90;;;12.20;99.90;;;;;;4995990;28;20133;-75
2022/06/13 03:53:16;;;;;;;18.25;6.93;;;12.20;99.90;;;;;;4974585;28;20501;-76
2022/06/13 03:55:51;;;;;;;20.55;7.00;;;12.20;99.90;;;;;;4993834;28;20047;-76
2022/06/13 03:58:24;;;;;;;20.65;7.93;;;12.30;99.90;;;;;;4996210;28;20038;-76
2022/06/13 04:01:25;;;;;;;23.85;7.03;;;12.30;99.90;;;;;;4995984;28;20047;-75
2022/06/13 04:03:51;;;;;;;23.95;6.70;;;12.40;99.90;;;;;;4982864;28;20462;-76
2022/06/13 04:06:35;;;;;;;25.25;8.32;;;12.40;99.90;;;;;;4996007;28;20121;-76
2022/06/13 04:09:20;;;;;;;22.83;7.50;;;12.50;99.90;;;;;;4995864;28;20039;-76
2022/06/13 04:12:00;;;;;;;20.38;7.43;;;12.50;99.90;;;;;;4995835;28;20054;-76
2022/06/13 04:15:03;;;;;;;18.80;7.13;;;12.40;99.90;;;;;;4995744;28;20491;-76
2022/06/13 04:17:31;;;;;;;16.98;6.10;;;12.40;99.90;;;;;;4976305;28;20546;-76
2022/06/13 04:20:11;;;;;;;17.55;6.80;;;13.20;99.90;;;;;;4993536;28;20085;-76
2022/06/13 04:23:13;;;;;;;22.13;6.80;;;12.30;99.90;;;;;;4995720;28;20069;-76
2022/06/13 04:25:47;;;;;;;14.20;6.72;;;12.40;99.90;;;;;;4995619;28;20061;-76
2022/06/13 04:28:16;;;;;;;15.65;6.30;;;12.30;99.90;;;;;;4995327;28;20514;-76
2022/06/13 04:30:44;;;;;;;20.92;6.30;;;12.30;99.90;;;;;;4995371;28;20054;-76
2022/06/13 04:33:33;;;;;;;15.30;5.70;;;12.40;99.90;;;;;;4995675;28;20117;-76
2022/06/13 04:36:00;;;;;;;15.80;5.32;;;12.50;99.90;;;;;;4995281;28;20428;-76
2022/06/13 04:38:27;;;;;;;19.65;5.30;;;12.80;99.90;;;;;;4995101;28;20125;-76
2022/06/13 04:40:57;;;;;;;19.85;6.47;;;12.70;99.90;;;;;;4995279;28;20054;-76
2022/06/13 04:43:27;;;;;;;16.20;6.45;;;12.80;99.90;;;;;;4995406;28;20141;-76
2022/06/13 04:46:03;;;;;;;25.60;6.80;;;12.90;99.90;;;;;;4994533;28;20046;-76
2022/06/13 04:48:30;;;;;;;15.77;4.63;;;13.00;99.90;;;;;;4995125;28;20133;-76
2022/06/13 04:51:00;;;;;;;11.07;4.53;;;13.30;99.90;;;;;;4995152;28;20105;-76
2022/06/13 04:53:36;;;;;;;12.02;3.90;;;14.20;99.90;;;;;;4995194;28;20054;-76
2022/06/13 04:56:02;;;;;;;12.35;3.70;;;15.10;99.90;;;;;;4994700;28;20401;-76
2022/06/13 04:58:35;;;;;;;14.13;3.50;;;15.90;99.90;;;;;;4994992;28;20121;-76
2022/06/13 05:01:05;;;;;;;9.90;3.78;;;16.50;99.90;;;;;;4992423;28;20113;-77
2022/06/13 05:03:41;;;;;;;10.73;3.03;;;17.10;99.90;;;;;;4992687;28;20443;-76
2022/06/13 05:06:18;;;;;;;6.18;1.65;;;17.60;99.90;;;;;;4992276;28;20054;-77
2022/06/13 05:08:44;;;;;;;9.30;2.70;;;18.10;98.10;;;;;;4991966;28;20053;-77
2022/06/13 05:11:29;;;;;;;7.03;2.55;;;18.60;93.20;;;;;;4991584;28;20495;-77
2022/06/13 05:14:06;;;;;;;6.55;1.77;;;18.80;65.50;;;;;;4991470;28;20050;-76
2022/06/13 05:16:50;;;;;;;7.50;1.83;;;18.50;60.80;;;;;;4991269;28;20058;-77
2022/06/13 05:19:39;;;;;;;8.90;2.13;;;18.60;62.60;;;;;;4991188;28;20061;-77
2022/06/13 05:22:11;;;;;;;8.30;2.35;;;18.00;67.40;;;;;;4991312;28;20045;-77
2022/06/13 05:25:08;;;;;;;10.75;2.15;;;17.20;67.20;;;;;;4991399;28;20598;-76
2022/06/13 05:27:33;;;;;;;7.55;1.90;;;16.30;87.20;;;;;;4992412;28;20046;-76
2022/06/13 05:29:59;;;;;;;8.63;2.20;;;15.20;99.90;;;;;;4993947;28;20101;-77
2022/06/13 05:32:25;;;;;;;5.50;1.50;;;14.90;99.90;;;;;;4993824;28;20415;-77
2022/06/13 05:34:52;;;;;;;6.55;1.20;;;13.60;99.90;;;;;;4993290;28;20081;-77
2022/06/13 05:37:18;;;;;;;11.95;1.70;;;13.20;99.90;;;;;;4993755;28;20117;-77
2022/06/13 05:39:45;;;;;;;6.25;1.65;;;12.80;99.90;;;;;;4994212;28;20177;-77
2022/06/13 05:42:14;;;;;;;5.85;1.08;;;12.60;99.90;;;;;;4994052;28;20565;-77
2022/06/13 05:44:41;;;;;;;7.78;1.30;;;12.50;99.90;;;;;;4993913;28;20141;-77
2022/06/13 05:47:19;;;;;;;3.80;1.00;;;12.60;99.90;;;;;;4993814;28;20073;-77
2022/06/13 05:49:46;;;;;;;3.42;1.33;;;13.40;99.90;;;;;;4993630;28;20045;-78
2022/06/13 05:52:12;;;;;;;6.60;1.58;;;13.90;99.90;;;;;;4993689;28;20491;-78
2022/06/13 05:54:38;;;;;;;4.88;1.02;;;14.10;99.90;;;;;;4992531;28;20053;-78
2022/06/13 05:57:04;;;;;;;2.95;0.98;;;14.30;99.90;;;;;;4993499;28;20134;-78
2022/06/13 05:59:30;;;;;;;6.00;1.38;;;14.70;99.90;;;;;;4993536;28;20046;-78
2022/06/13 06:01:55;;;;;;;3.10;0.50;;;15.30;99.90;;;;;;4993537;28;20361;-78
2022/06/13 06:04:21;;;;;;;3.13;0.88;;;16.30;99.90;;;;;;4993340;28;20491;-79
2022/06/13 06:06:47;;;;;;;3.53;1.05;;;17.30;99.90;;;;;;4993319;28;20053;-78
2022/06/13 06:09:13;;;;;;;2.10;0.70;;;17.70;99.30;;;;;;4993685;28;20553;-78
2022/06/13 06:11:39;;;;;;;2.35;1.00;;;18.60;71.00;;;;;;4993738;28;20368;-78
2022/06/13 06:14:05;;;;;;;2.25;0.80;;;19.20;65.20;;;;;;4993579;28;20038;-78
2022/06/13 06:16:31;;;;;;;5.55;0.90;;;19.70;58.00;;;;;;4993721;28;20038;-78
2022/06/13 06:18:57;;;;;;;2.60;0.70;;;20.00;49.80;;;;;;4993213;28;20519;-78
2022/06/13 06:21:23;;;;;;;5.68;1.30;;;20.40;36.30;;;;;;4991988;28;20058;-78
2022/06/13 06:23:49;;;;;;;5.30;1.00;;;21.00;27.20;;;;;;4993445;28;20154;-78
2022/06/13 06:26:17;;;;;;;3.00;0.77;;;21.30;20.70;;;;;;4993121;28;20403;-78
2022/06/13 06:28:42;;;;;;;4.20;1.00;;;20.70;25.30;;;;;;4993162;28;20046;-77
2022/06/13 06:31:10;;;;;;;3.53;0.82;;;21.80;23.40;;;;;;4993533;28;20501;-78
2022/06/13 06:33:35;;;;;;;4.97;1.75;;;21.60;16.90;;;;;;4993129;28;20047;-78
2022/06/13 06:36:01;;;;;;;5.70;1.10;;;21.50;10.60;;;;;;4993103;28;20046;-77
2022/06/13 06:38:28;;;;;;;7.40;1.48;;;21.90;8.30;;;;;;4993052;28;20093;-77
2022/06/13 06:40:54;;;;;;;4.82;1.13;;;21.40;15.80;;;;;;4993067;28;20042;-77
2022/06/13 06:43:19;;;;;;;5.28;1.02;;;21.60;19.20;;;;;;4993133;28;20054;-77
2022/06/13 06:45:45;;;;;;;3.97;1.30;;;21.90;14.20;;;;;;4992827;28;20046;-74
2022/06/13 06:48:16;;;;;;;6.90;1.55;;;22.20;1.00;;;;;;4992701;28;20069;-75
2022/06/13 06:50:44;;;;;;;6.57;1.27;;;21.60;1.70;;;;;;4991322;28;20050;-75
2022/06/13 06:53:11;;;;;;;6.07;1.20;;;20.50;11.40;;;;;;4989880;28;20104;-75
2022/06/13 07:01:08;;;;;;;8.27;2.45;;;18.60;39.80;;;;;;4988867;28;20054;-78
2022/06/13 07:03:33;;;;;;;3.00;0.80;;;18.30;52.20;;;;;;4989613;28;20042;-77
2022/06/13 07:05:59;;;;;;;3.13;0.88;;;18.00;62.70;;;;;;4989838;28;20113;-77
2022/06/13 07:08:25;;;;;;;6.93;1.65;;;17.60;63.40;;;;;;4992189;28;20045;-77
2022/06/13 07:10:51;;;;;;;5.57;1.48;;;17.40;67.10;;;;;;4994171;28;20097;-78
2022/06/13 07:13:18;;;;;;;4.20;1.10;;;17.50;72.70;;;;;;4993686;28;20070;-77
2022/06/13 07:15:44;;;;;;;5.60;1.20;;;18.80;58.20;;;;;;4993865;28;20065;-77
2022/06/13 07:18:10;;;;;;;7.75;1.65;;;20.00;31.80;;;;;;4994000;28;20518;-77
2022/06/13 07:20:38;;;;;;;5.60;1.15;;;20.50;23.30;;;;;;4993863;28;20050;-77
2022/06/13 07:23:04;;;;;;;6.57;2.15;;;20.70;20.30;;;;;;4992229;28;20121;-75
2022/06/13 07:25:31;;;;;;;7.95;1.50;;;20.90;16.30;;;;;;4992263;28;20455;-76
2022/06/13 07:27:57;;;;;;;3.90;1.08;;;20.70;15.10;;;;;;4992956;28;20467;-75
2022/06/13 07:30:26;;;;;;;8.05;1.73;;;21.10;21.10;;;;;;4991517;28;20082;-75
2022/06/13 07:32:54;;;;;;;5.63;1.10;;;21.20;18.30;;;;;;4993084;28;20436;-75
2022/06/13 07:35:22;;;;;;;3.83;1.20;;;19.90;23.80;;;;;;4992731;28;20045;-75
2022/06/13 07:40:36;;;;;;;9.43;1.23;;;16.90;59.90;;;;;;4993237;28;20200;-77
2022/06/13 07:43:03;;;;;;;14.45;2.65;;;15.90;90.00;;;;;;4993316;28;20052;-76
2022/06/13 07:45:33;;;;;;;6.63;1.65;;;15.40;99.90;;;;;;4993440;28;20443;-77
2022/06/13 07:47:59;;;;;;;5.47;1.10;;;15.10;99.90;;;;;;4993346;28;20046;-76
2022/06/13 07:50:26;;;;;;;5.15;1.23;;;15.20;99.90;;;;;;4993164;28;20419;-77
2022/06/13 07:52:52;;;;;;;7.60;1.30;;;16.10;99.90;;;;;;4993253;28;20567;-77
2022/06/13 07:55:19;;;;;;;8.60;1.55;;;18.50;92.70;;;;;;4993172;28;20487;-77
2022/06/13 07:57:46;;;;;;;8.13;1.40;;;19.20;59.30;;;;;;4993423;28;20502;-77
2022/06/13 08:00:30;;;;;;;6.50;1.42;;;18.80;67.00;;;;;;4993323;28;20086;-77
2022/06/13 08:02:57;;;;;;;14.52;2.13;;;17.90;88.10;;;;;;4993389;28;20048;-77
2022/06/13 08:05:23;;;;;;;24.70;3.28;;;16.40;99.90;;;;;;4991616;28;20053;-75
2022/06/13 08:07:49;;;;;;;6.20;1.30;;;15.10;99.90;;;;;;4993098;28;20046;-76
2022/06/13 08:10:15;;;;;;;10.40;2.80;;;14.20;99.90;;;;;;4993171;28;20046;-74
2022/06/13 08:12:43;;;;;;;10.43;2.50;;;13.70;99.90;;;;;;4992652;28;20134;-74
2022/06/13 08:15:09;;;;;;;8.05;2.22;;;13.50;99.90;;;;;;4991991;28;20054;-74
2022/06/13 08:17:35;;;;;;;10.30;1.75;;;13.40;99.90;;;;;;4992364;28;20058;-75
2022/06/13 08:20:01;;;;;;;6.60;1.67;;;13.40;99.90;;;;;;4990507;28;20443;-75
2022/06/13 08:22:26;;;;;;;13.02;2.00;;;13.60;99.90;;;;;;4992097;28;20070;-75
2022/06/13 08:24:52;;;;;;;10.05;2.55;;;14.40;99.90;;;;;;4992035;28;20089;-75
2022/06/13 08:27:17;;;;;;;8.40;1.73;;;15.00;99.90;;;;;;4991999;28;20046;-75
2022/06/13 08:29:43;;;;;;;9.40;1.85;;;14.70;99.90;;;;;;4991903;28;20042;-75
2022/06/13 08:32:09;;;;;;;8.45;1.50;;;14.40;99.90;;;;;;4992260;28;20129;-75
2022/06/13 08:34:35;;;;;;;7.38;1.45;;;14.10;99.90;;;;;;4992059;28;20042;-75
2022/06/13 08:37:01;;;;;;;9.48;1.60;;;13.80;99.90;;;;;;4992524;28;20112;-75
2022/06/13 08:39:26;;;;;;;7.70;1.90;;;14.20;99.90;;;;;;4992607;28;20486;-75
2022/06/13 08:42:07;;;;;;;9.60;1.17;;;15.30;99.90;;;;;;4992685;28;20048;-75
2022/06/13 08:44:41;;;;;;;8.65;1.35;;;16.90;99.90;;;;;;4991418;28;20093;-76
2022/06/13 08:47:44;;;;;;;6.40;1.20;;;17.50;99.90;;;;;;4993482;28;20065;-76
2022/06/13 08:50:24;;;;;;;9.73;2.42;;;17.40;99.90;;;;;;4994712;28;20046;-75
2022/06/13 08:52:56;;;;;;;5.72;1.52;;;17.20;99.90;;;;;;4994802;28;20047;-76
2022/06/13 08:55:37;;;;;;;6.43;1.20;;;17.10;99.90;;;;;;4994248;28;20387;-76
2022/06/13 08:58:17;;;;;;;4.72;0.82;;;17.60;99.90;;;;;;4991871;28;20058;-76
2022/06/13 09:01:00;;;;;;;5.35;1.05;;;18.10;99.90;;;;;;4992461;28;20038;-76
2022/06/13 09:03:38;;;;;;;4.40;0.80;;;19.10;99.90;;;;;;4992353;28;20403;-76
2022/06/13 09:06:39;;;;;;;5.07;1.77;;;19.70;77.10;;;;;;4991851;28;20085;-76
2022/06/13 09:09:17;;;;;;;3.35;0.85;;;20.20;62.10;;;;;;4991201;28;20061;-75
2022/06/13 09:11:48;;;;;;;7.95;1.63;;;20.30;59.60;;;;;;4991828;28;20530;-75
2022/06/13 09:14:16;;;;;;;4.43;0.90;;;19.70;61.30;;;;;;4991764;28;20518;-76
2022/06/13 09:16:49;;;;;;;3.60;0.70;;;20.20;35.60;;;;;;4990542;28;20403;-78
2022/06/13 09:19:20;;;;;;;2.97;0.95;;;20.60;51.60;;;;;;4991838;28;20452;-78
2022/06/13 09:22:08;;;;;;;9.55;1.60;;;20.00;12.30;;;;;;4992119;28;20038;-78
2022/06/13 09:24:58;;;;;;;7.07;1.00;;;20.00;20.40;;;;;;4992158;28;20135;-76
2022/06/13 09:27:29;;;;;;;3.65;0.90;;;20.90;9.30;;;;;;4991416;28;20129;-78
2022/06/13 09:30:01;;;;;;;4.40;1.17;;;20.40;1.00;;;;;;4991735;28;20046;-79
2022/06/13 09:32:53;;;;;;;5.03;1.05;;;19.30;4.00;;;;;;4991931;28;20411;-79
2022/06/13 09:35:23;;;;;;;7.10;1.52;;;18.20;15.30;;;;;;4991514;28;20064;-76
2022/06/13 09:38:00;;;;;;;7.03;1.00;;;18.20;45.40;;;;;;4991372;28;20144;-77
2022/06/13 09:41:06;;;;;;;8.95;1.10;;;18.80;55.30;;;;;;4992520;28;20403;-76
2022/06/13 09:44:09;;;;;;;9.40;2.25;;;17.80;56.10;;;;;;4993849;28;20050;-75
2022/06/13 09:46:49;;;;;;;5.88;1.15;;;16.00;99.90;;;;;;4992713;28;20050;-75
2022/06/13 09:49:42;;;;;;;13.13;1.85;;;15.10;99.90;;;;;;4994423;28;20121;-77
2022/06/13 09:52:32;;;;;;;8.13;1.65;;;14.50;99.90;;;;;;4994245;28;20054;-77
2022/06/13 09:55:15;;;;;;;7.10;1.40;;;14.40;99.90;;;;;;4993891;28;20050;-77
2022/06/13 09:57:48;;;;;;;4.78;0.98;;;14.40;99.90;;;;;;4994039;28;20120;-77
2022/06/13 10:00:44;;;;;;;10.93;1.92;;;14.60;99.90;;;;;;4994049;28;20089;-77
2022/06/13 10:03:33;;;;;;;4.75;0.90;;;14.50;99.90;;;;;;4993894;28;20089;-77
2022/06/13 10:06:11;;;;;;;12.25;2.28;;;14.40;99.90;;;;;;4993547;28;20129;-78
2022/06/13 10:08:37;;;;;;;5.07;1.20;;;14.80;99.90;;;;;;4993818;28;20121;-77
2022/06/13 10:11:42;;;;;;;7.30;1.50;;;15.60;99.90;;;;;;4993856;28;20121;-77
2022/06/13 10:14:19;;;;;;;5.82;1.05;;;16.50;99.90;;;;;;4993948;28;20121;-77
2022/06/13 10:16:53;;;;;;;6.90;1.42;;;17.10;99.90;;;;;;4993722;28;20042;-78
2022/06/13 10:19:43;;;;;;;5.25;1.08;;;17.50;99.90;;;;;;4993797;28;20042;-76
2022/06/13 10:22:13;;;;;;;6.93;2.00;;;17.50;99.90;;;;;;4993738;28;20082;-76
2022/06/13 10:25:12;;;;;;;5.72;1.13;;;17.40;92.50;;;;;;4993473;28;20042;-76
2022/06/13 10:27:43;;;;;;;10.10;1.65;;;16.90;96.90;;;;;;4993417;28;20081;-75
2022/06/13 10:30:32;;;;;;;5.70;1.48;;;17.20;99.90;;;;;;4993506;28;20050;-76
2022/06/13 10:33:14;;;;;;;8.48;1.70;;;17.80;89.80;;;;;;4995598;28;20356;-75
2022/06/13 10:35:53;;;;;;;4.93;1.20;;;18.20;77.50;;;;;;4993258;28;20101;-75
2022/06/13 10:38:37;;;;;;;4.93;1.00;;;18.00;70.50;;;;;;4993043;28;20563;-75
2022/06/13 10:41:03;;;;;;;7.78;1.88;;;17.40;69.10;;;;;;4993062;28;20174;-75
2022/06/13 10:43:30;;;;;;;5.82;1.00;;;16.70;66.00;;;;;;4991994;28;20121;-75
2022/06/13 10:45:56;;;;;;;6.40;1.27;;;16.90;76.30;;;;;;4992576;28;20069;-75
2022/06/13 10:48:28;;;;;;;12.15;1.52;;;17.60;92.10;;;;;;4991637;28;20125;-75
2022/06/13 10:51:03;;;;;;;4.03;1.05;;;18.20;70.60;;;;;;4992904;28;20117;-75
2022/06/13 10:53:41;;;;;;;8.52;1.27;;;18.30;56.80;;;;;;4993186;28;20095;-76
2022/06/13 10:56:16;;;;;;;9.73;2.03;;;18.20;61.00;;;;;;4992664;28;20054;-76
2022/06/13 10:58:47;;;;;;;5.78;1.67;;;17.80;62.20;;;;;;4992998;28;20058;-76
2022/06/13 11:01:19;;;;;;;9.23;1.42;;;17.20;71.00;;;;;;4992893;28;20088;-76
2022/06/13 11:04:15;;;;;;;7.85;1.90;;;17.00;84.30;;;;;;4992904;28;20491;-75
2022/06/13 11:06:45;;;;;;;7.07;1.58;;;17.00;92.80;;;;;;4992698;28;20046;-76
2022/06/13 11:09:36;;;;;;;10.18;2.10;;;17.10;92.40;;;;;;4992805;28;20042;-76
2022/06/13 11:12:24;;;;;;;10.98;1.48;;;17.90;96.90;;;;;;4992864;28;20125;-76
2022/06/13 11:23:55;;;;;;;4.53;1.30;;;17.00;66.70;;;;;;4991724;28;20136;-76
2022/06/13 11:29:15;;;;;;;8.68;1.35;;;17.90;78.30;;;;;;4964712;28;20054;-76
2022/06/13 11:31:58;;;;;;;6.90;1.60;;;18.70;50.10;;;;;;4991537;28;20112;-76
2022/06/13 11:34:27;;;;;;;8.38;2.05;;;18.80;51.00;;;;;;4992478;28;20034;-76
2022/06/13 11:37:11;;;;;;;8.48;1.90;;;18.40;50.40;;;;;;4992876;28;20047;-76
2022/06/13 11:39:40;;;;;;;9.00;1.60;;;18.20;48.30;;;;;;4992635;28;20437;-76
2022/06/13 11:42:28;;;;;;;6.95;1.60;;;17.40;50.70;;;;;;4992825;28;20051;-76
2022/06/13 11:45:00;;;;;;;12.60;1.67;;;18.00;46.70;;;;;;4992684;28;20046;-76
2022/06/13 11:47:38;;;;;;;9.85;2.90;;;18.30;53.50;;;;;;4992590;28;20187;-76
2022/06/13 11:50:23;;;;;;;10.63;1.85;;;18.80;56.00;;;;;;4992516;28;20096;-76
2022/06/13 11:55:51;;;;;;;17.27;1.85;;;19.40;41.90;;;;;;4996135;28;20046;-76
2022/06/13 11:58:20;;;;;;;8.02;1.63;;;19.50;22.40;;;;;;4994685;28;20546;-76
2022/06/13 12:00:52;;;;;;;13.55;1.60;;;19.00;30.50;;;;;;4995621;28;20039;-76
2022/06/13 12:03:24;;;;;;;7.70;1.75;;;18.80;28.30;;;;;;4994730;28;20046;-76
2022/06/13 12:06:09;;;;;;;8.20;1.40;;;18.50;28.80;;;;;;4995008;28;20046;-76
2022/06/13 12:08:34;;;;;;;13.23;2.33;;;18.40;37.30;;;;;;4992991;28;20048;-76
2022/06/13 12:11:14;;;;;;;9.77;1.70;;;18.40;36.90;;;;;;4992731;28;20133;-77
2022/06/13 12:13:44;;;;;;;7.75;1.40;;;18.60;36.80;;;;;;4991390;28;20078;-76
2022/06/13 12:16:47;;;;;;;8.43;1.85;;;19.20;42.50;;;;;;4992928;28;20082;-76
2022/06/13 12:19:31;;;;;;;11.43;1.25;;;21.00;31.20;;;;;;4981731;28;20198;-76
2022/06/13 12:22:22;;;;;;;5.72;1.10;;;20.50;11.10;;;;;;4991380;28;20483;-76
2022/06/13 12:25:01;;;;;;;6.10;1.48;;;19.90;17.00;;;;;;4992682;28;20459;-76
2022/06/13 12:27:52;;;;;;;9.98;2.63;;;19.90;22.30;;;;;;4992559;28;20404;-77
2022/06/13 12:30:32;;;;;;;9.07;1.98;;;19.50;10.30;;;;;;4992465;28;20043;-76
2022/06/13 12:33:09;;;;;;;8.90;1.85;;;19.20;18.10;;;;;;4992426;28;20093;-76
2022/06/13 12:35:43;;;;;;;9.18;2.08;;;19.20;19.50;;;;;;4990921;28;20050;-76
2022/06/13 12:38:38;;;;;;;11.75;2.38;;;19.40;23.90;;;;;;4992327;28;20056;-76
2022/06/13 12:41:30;;;;;;;10.50;1.95;;;19.60;22.70;;;;;;4970571;28;20408;-76
2022/06/13 12:44:35;;;;;;;9.23;1.60;;;19.30;32.70;;;;;;4992615;28;20510;-75
2022/06/13 12:47:24;;;;;;;5.10;1.08;;;19.00;28.10;;;;;;4974624;28;20618;-76
2022/06/13 12:50:01;;;;;;;7.03;1.55;;;19.30;16.00;;;;;;4990707;28;20108;-75
2022/06/13 12:52:54;;;;;;;8.00;1.27;;;19.20;16.00;;;;;;4992119;28;20061;-77
2022/06/13 12:55:50;;;;;;;12.80;1.60;;;19.10;23.20;;;;;;4994121;28;20054;-75
2022/06/13 12:59:09;;;;;;;12.65;1.65;;;19.00;22.00;;;;;;4994430;28;20061;-77
2022/06/13 13:01:41;;;;;;;7.40;1.45;;;19.10;36.90;;;;;;4933742;29;20073;-77
2022/06/13 13:04:47;;;;;;;4.55;1.10;;;19.40;26.50;;;;;;4991773;28;20054;-78
2022/06/13 13:07:34;;;;;;;7.38;1.38;;;18.90;23.70;;;;;;4962192;28;20051;-76
2022/06/13 13:10:17;;;;;;;4.45;1.23;;;18.80;21.70;;;;;;4990285;28;20043;-75
2022/06/13 13:12:57;;;;;;;7.78;1.70;;;19.70;16.90;;;;;;4991599;28;20046;-75
2022/06/13 13:15:53;;;;;;;7.30;1.55;;;21.20;13.50;;;;;;4990171;28;20129;-76
2022/06/13 13:18:38;;;;;;;9.23;1.27;;;21.20;11.50;;;;;;4991483;28;20110;-75
2022/06/13 13:21:20;;;;;;;5.45;1.10;;;20.50;11.10;;;;;;4991172;28;20458;-77
2022/06/13 13:23:48;;;;;;;9.05;1.83;;;20.40;4.30;;;;;;4991416;28;20055;-76
2022/06/13 13:26:37;;;;;;;4.50;1.23;;;20.30;1.00;;;;;;4991063;28;20073;-75
2022/06/13 13:29:05;;;;;;;8.27;1.30;;;20.00;6.70;;;;;;4991196;28;20053;-76
2022/06/13 13:31:47;;;;;;;7.90;1.73;;;19.70;18.20;;;;;;4991032;28;20049;-76
2022/06/13 13:34:36;;;;;;;8.10;1.58;;;19.80;16.60;;;;;;4992436;28;20411;-77
2022/06/13 13:37:39;;;;;;;4.65;1.52;;;19.80;14.00;;;;;;4993036;28;20089;-76
2022/06/13 13:40:14;;;;;;;5.78;1.15;;;21.60;13.30;;;;;;4992532;28;20058;-77
2022/06/13 13:42:53;;;;;;;5.35;1.42;;;22.10;1.00;;;;;;4991262;28;20054;-76
2022/06/13 13:45:34;;;;;;;3.22;1.17;;;20.90;1.00;;;;;;4990663;28;20395;-76
2022/06/13 13:48:07;;;;;;;7.50;1.10;;;21.80;1.00;;;;;;4989354;28;20042;-76
2022/06/13 13:50:42;;;;;;;3.95;1.10;;;22.30;1.00;;;;;;4989693;28;20399;-75
2022/06/13 13:53:11;;;;;;;4.60;0.98;;;23.90;1.00;;;;;;4990658;28;20047;-75
2022/06/13 13:55:43;;;;;;;4.47;0.85;;;24.90;1.00;;;;;;4990735;28;20053;-75
2022/06/13 13:58:25;;;;;;;4.60;1.00;;;24.70;1.00;;;;;;4990415;28;20515;-75